sensor_id;sensor_type;location;lat;lon;timestamp;P1;durP1;ratioP1;P2;durP2;ratioP2
20623;SDS011;10471;42.736;23.346;2023-04-05T00:00:57;18.30;;;13.77;;
20623;SDS011;10471;42.736;23.346;2023-04-05T00:03:22;16.60;;;12.30;;
20623;SDS011;10471;42.736;23.346;2023-04-05T00:05:48;16.90;;;12.30;;
20623;SDS011;10471;42.736;23.346;2023-04-05T00:08:14;17.20;;;11.90;;
20623;SDS011;10471;42.736;23.346;2023-04-05T00:10:48;18.87;;;10.57;;
20623;SDS011;10471;42.736;23.346;2023-04-05T00:13:14;19.93;;;13.87;;
20623;SDS011;10471;42.736;23.346;2023-04-05T00:15:40;19.27;;;13.97;;
20623;SDS011;10471;42.736;23.346;2023-04-05T00:18:05;19.20;;;12.77;;
20623;SDS011;10471;42.736;23.346;2023-04-05T00:20:31;20.47;;;11.93;;
20623;SDS011;10471;42.736;23.346;2023-04-05T00:22:57;19.33;;;11.73;;
20623;SDS011;10471;42.736;23.346;2023-04-05T00:25:23;17.83;;;11.57;;
20623;SDS011;10471;42.736;23.346;2023-04-05T00:27:49;16.23;;;11.50;;
20623;SDS011;10471;42.736;23.346;2023-04-05T00:30:14;15.37;;;10.00;;
20623;SDS011;10471;42.736;23.346;2023-04-05T00:32:47;18.87;;;11.30;;
20623;SDS011;10471;42.736;23.346;2023-04-05T00:35:14;18.50;;;10.63;;
20623;SDS011;10471;42.736;23.346;2023-04-05T00:37:39;15.63;;;10.03;;
20623;SDS011;10471;42.736;23.346;2023-04-05T00:40:05;15.57;;;10.53;;
20623;SDS011;10471;42.736;23.346;2023-04-05T00:42:31;16.80;;;11.03;;
20623;SDS011;10471;42.736;23.346;2023-04-05T00:44:56;17.93;;;11.27;;
20623;SDS011;10471;42.736;23.346;2023-04-05T00:47:22;18.50;;;11.80;;
20623;SDS011;10471;42.736;23.346;2023-04-05T00:49:47;15.50;;;10.63;;
20623;SDS011;10471;42.736;23.346;2023-04-05T00:52:14;15.97;;;10.60;;
20623;SDS011;10471;42.736;23.346;2023-04-05T00:54:39;16.60;;;10.20;;
20623;SDS011;10471;42.736;23.346;2023-04-05T00:57:07;16.90;;;11.10;;
20623;SDS011;10471;42.736;23.346;2023-04-05T00:59:33;17.63;;;11.57;;
20623;SDS011;10471;42.736;23.346;2023-04-05T01:02:03;16.27;;;11.50;;
20623;SDS011;10471;42.736;23.346;2023-04-05T01:04:37;15.83;;;10.00;;
20623;SDS011;10471;42.736;23.346;2023-04-05T01:07:09;15.50;;;10.50;;
20623;SDS011;10471;42.736;23.346;2023-04-05T01:09:44;14.37;;;10.17;;
20623;SDS011;10471;42.736;23.346;2023-04-05T01:12:17;16.33;;;10.03;;
20623;SDS011;10471;42.736;23.346;2023-04-05T01:14:48;16.10;;;11.90;;
20623;SDS011;10471;42.736;23.346;2023-04-05T01:17:16;14.70;;;10.30;;
20623;SDS011;10471;42.736;23.346;2023-04-05T01:19:53;16.20;;;10.27;;
20623;SDS011;10471;42.736;23.346;2023-04-05T01:31:34;14.00;;;9.33;;
20623;SDS011;10471;42.736;23.346;2023-04-05T01:36:40;13.20;;;9.17;;
20623;SDS011;10471;42.736;23.346;2023-04-05T01:39:15;12.50;;;8.50;;
20623;SDS011;10471;42.736;23.346;2023-04-05T01:41:44;20.07;;;12.50;;
20623;SDS011;10471;42.736;23.346;2023-04-05T01:44:09;12.57;;;8.47;;
20623;SDS011;10471;42.736;23.346;2023-04-05T01:46:35;13.57;;;9.43;;
20623;SDS011;10471;42.736;23.346;2023-04-05T01:49:00;12.00;;;9.00;;
20623;SDS011;10471;42.736;23.346;2023-04-05T01:51:26;13.43;;;8.83;;
20623;SDS011;10471;42.736;23.346;2023-04-05T01:53:52;11.73;;;8.90;;
20623;SDS011;10471;42.736;23.346;2023-04-05T01:56:17;12.83;;;9.13;;
20623;SDS011;10471;42.736;23.346;2023-04-05T01:58:42;9.73;;;8.03;;
20623;SDS011;10471;42.736;23.346;2023-04-05T02:01:08;12.57;;;7.17;;
20623;SDS011;10471;42.736;23.346;2023-04-05T02:03:33;14.70;;;9.67;;
20623;SDS011;10471;42.736;23.346;2023-04-05T02:05:58;10.03;;;7.20;;
20623;SDS011;10471;42.736;23.346;2023-04-05T02:08:24;9.73;;;7.47;;
20623;SDS011;10471;42.736;23.346;2023-04-05T02:10:51;12.20;;;9.07;;
20623;SDS011;10471;42.736;23.346;2023-04-05T02:13:17;11.43;;;8.37;;
20623;SDS011;10471;42.736;23.346;2023-04-05T02:15:46;10.33;;;7.50;;
20623;SDS011;10471;42.736;23.346;2023-04-05T02:18:14;12.30;;;8.10;;
20623;SDS011;10471;42.736;23.346;2023-04-05T02:20:45;8.17;;;6.87;;
20623;SDS011;10471;42.736;23.346;2023-04-05T02:23:11;10.33;;;7.60;;
20623;SDS011;10471;42.736;23.346;2023-04-05T02:25:37;9.57;;;6.97;;
20623;SDS011;10471;42.736;23.346;2023-04-05T02:28:02;9.97;;;7.30;;
20623;SDS011;10471;42.736;23.346;2023-04-05T02:30:28;7.37;;;6.57;;
20623;SDS011;10471;42.736;23.346;2023-04-05T02:32:53;8.23;;;6.50;;
20623;SDS011;10471;42.736;23.346;2023-04-05T02:35:19;7.77;;;6.13;;
20623;SDS011;10471;42.736;23.346;2023-04-05T02:37:45;7.50;;;6.53;;
20623;SDS011;10471;42.736;23.346;2023-04-05T02:40:11;7.37;;;5.60;;
20623;SDS011;10471;42.736;23.346;2023-04-05T02:42:38;8.13;;;6.37;;
20623;SDS011;10471;42.736;23.346;2023-04-05T02:45:04;9.20;;;7.00;;
20623;SDS011;10471;42.736;23.346;2023-04-05T02:47:30;9.50;;;7.37;;
20623;SDS011;10471;42.736;23.346;2023-04-05T02:49:56;8.77;;;7.23;;
20623;SDS011;10471;42.736;23.346;2023-04-05T02:52:21;8.03;;;6.53;;
20623;SDS011;10471;42.736;23.346;2023-04-05T02:54:47;7.57;;;6.77;;
20623;SDS011;10471;42.736;23.346;2023-04-05T02:57:13;8.93;;;6.77;;
20623;SDS011;10471;42.736;23.346;2023-04-05T02:59:38;8.40;;;6.83;;
20623;SDS011;10471;42.736;23.346;2023-04-05T03:02:05;9.53;;;7.30;;
20623;SDS011;10471;42.736;23.346;2023-04-05T03:04:31;8.00;;;6.40;;
20623;SDS011;10471;42.736;23.346;2023-04-05T03:06:58;9.10;;;7.10;;
20623;SDS011;10471;42.736;23.346;2023-04-05T03:09:30;6.27;;;5.00;;
20623;SDS011;10471;42.736;23.346;2023-04-05T03:12:00;7.50;;;6.17;;
20623;SDS011;10471;42.736;23.346;2023-04-05T03:14:26;7.63;;;5.93;;
20623;SDS011;10471;42.736;23.346;2023-04-05T03:16:52;8.80;;;6.70;;
20623;SDS011;10471;42.736;23.346;2023-04-05T03:19:17;7.03;;;5.83;;
20623;SDS011;10471;42.736;23.346;2023-04-05T03:21:46;7.03;;;5.93;;
20623;SDS011;10471;42.736;23.346;2023-04-05T03:24:15;8.57;;;6.97;;
20623;SDS011;10471;42.736;23.346;2023-04-05T03:26:46;7.27;;;6.50;;
20623;SDS011;10471;42.736;23.346;2023-04-05T03:29:13;6.60;;;5.90;;
20623;SDS011;10471;42.736;23.346;2023-04-05T03:31:38;6.97;;;4.97;;
20623;SDS011;10471;42.736;23.346;2023-04-05T03:34:04;8.80;;;6.30;;
20623;SDS011;10471;42.736;23.346;2023-04-05T03:36:29;7.43;;;5.97;;
20623;SDS011;10471;42.736;23.346;2023-04-05T03:39:05;8.07;;;6.10;;
20623;SDS011;10471;42.736;23.346;2023-04-05T03:41:31;9.03;;;6.50;;
20623;SDS011;10471;42.736;23.346;2023-04-05T03:43:56;9.00;;;8.07;;
20623;SDS011;10471;42.736;23.346;2023-04-05T03:46:22;9.57;;;6.93;;
20623;SDS011;10471;42.736;23.346;2023-04-05T03:48:47;7.03;;;6.17;;
20623;SDS011;10471;42.736;23.346;2023-04-05T03:51:12;11.73;;;9.27;;
20623;SDS011;10471;42.736;23.346;2023-04-05T03:53:38;14.47;;;9.50;;
20623;SDS011;10471;42.736;23.346;2023-04-05T03:56:03;7.57;;;5.73;;
20623;SDS011;10471;42.736;23.346;2023-04-05T03:58:29;9.17;;;6.47;;
20623;SDS011;10471;42.736;23.346;2023-04-05T04:00:54;6.77;;;5.93;;
20623;SDS011;10471;42.736;23.346;2023-04-05T04:03:20;13.23;;;7.90;;
20623;SDS011;10471;42.736;23.346;2023-04-05T04:05:46;12.63;;;8.67;;
20623;SDS011;10471;42.736;23.346;2023-04-05T04:08:11;10.40;;;7.27;;
20623;SDS011;10471;42.736;23.346;2023-04-05T04:10:37;11.60;;;7.30;;
20623;SDS011;10471;42.736;23.346;2023-04-05T04:13:02;8.50;;;5.47;;
20623;SDS011;10471;42.736;23.346;2023-04-05T04:15:28;8.40;;;5.53;;
20623;SDS011;10471;42.736;23.346;2023-04-05T04:17:53;5.53;;;4.10;;
20623;SDS011;10471;42.736;23.346;2023-04-05T04:20:19;7.67;;;5.87;;
20623;SDS011;10471;42.736;23.346;2023-04-05T04:22:45;9.33;;;6.60;;
20623;SDS011;10471;42.736;23.346;2023-04-05T04:25:12;5.50;;;4.80;;
20623;SDS011;10471;42.736;23.346;2023-04-05T04:27:39;9.13;;;5.73;;
20623;SDS011;10471;42.736;23.346;2023-04-05T04:30:07;7.27;;;4.60;;
20623;SDS011;10471;42.736;23.346;2023-04-05T04:32:34;7.30;;;5.27;;
20623;SDS011;10471;42.736;23.346;2023-04-05T04:35:17;5.50;;;3.97;;
20623;SDS011;10471;42.736;23.346;2023-04-05T04:37:46;8.40;;;5.67;;
20623;SDS011;10471;42.736;23.346;2023-04-05T04:40:14;8.37;;;5.50;;
20623;SDS011;10471;42.736;23.346;2023-04-05T04:42:41;9.30;;;5.50;;
20623;SDS011;10471;42.736;23.346;2023-04-05T04:45:10;10.63;;;6.33;;
20623;SDS011;10471;42.736;23.346;2023-04-05T04:47:37;6.07;;;4.53;;
20623;SDS011;10471;42.736;23.346;2023-04-05T04:50:02;6.20;;;4.53;;
20623;SDS011;10471;42.736;23.346;2023-04-05T04:52:29;4.93;;;4.20;;
20623;SDS011;10471;42.736;23.346;2023-04-05T04:54:54;5.90;;;4.80;;
20623;SDS011;10471;42.736;23.346;2023-04-05T04:57:20;10.17;;;5.90;;
20623;SDS011;10471;42.736;23.346;2023-04-05T04:59:45;8.30;;;5.30;;
20623;SDS011;10471;42.736;23.346;2023-04-05T05:02:10;8.30;;;6.27;;
20623;SDS011;10471;42.736;23.346;2023-04-05T05:04:36;6.40;;;5.33;;
20623;SDS011;10471;42.736;23.346;2023-04-05T05:07:01;6.73;;;4.93;;
20623;SDS011;10471;42.736;23.346;2023-04-05T05:09:26;5.87;;;4.40;;
20623;SDS011;10471;42.736;23.346;2023-04-05T05:11:52;9.97;;;6.30;;
20623;SDS011;10471;42.736;23.346;2023-04-05T05:14:17;6.47;;;4.47;;
20623;SDS011;10471;42.736;23.346;2023-04-05T05:16:43;8.00;;;5.23;;
20623;SDS011;10471;42.736;23.346;2023-04-05T05:19:08;6.77;;;4.67;;
20623;SDS011;10471;42.736;23.346;2023-04-05T05:21:34;8.63;;;5.10;;
20623;SDS011;10471;42.736;23.346;2023-04-05T05:24:00;5.33;;;4.00;;
20623;SDS011;10471;42.736;23.346;2023-04-05T05:26:25;5.83;;;4.20;;
20623;SDS011;10471;42.736;23.346;2023-04-05T05:28:51;5.13;;;3.87;;
20623;SDS011;10471;42.736;23.346;2023-04-05T05:31:17;6.90;;;3.90;;
20623;SDS011;10471;42.736;23.346;2023-04-05T05:33:42;6.93;;;4.90;;
20623;SDS011;10471;42.736;23.346;2023-04-05T05:36:09;5.67;;;4.47;;
20623;SDS011;10471;42.736;23.346;2023-04-05T05:38:35;4.73;;;3.43;;
20623;SDS011;10471;42.736;23.346;2023-04-05T05:41:00;4.33;;;3.17;;
20623;SDS011;10471;42.736;23.346;2023-04-05T05:43:26;6.80;;;4.63;;
20623;SDS011;10471;42.736;23.346;2023-04-05T05:45:51;10.20;;;5.80;;
20623;SDS011;10471;42.736;23.346;2023-04-05T05:48:16;6.10;;;3.97;;
20623;SDS011;10471;42.736;23.346;2023-04-05T05:50:43;8.47;;;3.73;;
20623;SDS011;10471;42.736;23.346;2023-04-05T05:53:08;7.23;;;4.20;;
20623;SDS011;10471;42.736;23.346;2023-04-05T05:55:34;5.97;;;4.07;;
20623;SDS011;10471;42.736;23.346;2023-04-05T05:58:00;6.20;;;3.60;;
20623;SDS011;10471;42.736;23.346;2023-04-05T06:00:26;3.50;;;2.67;;
20623;SDS011;10471;42.736;23.346;2023-04-05T06:02:51;3.40;;;2.53;;
20623;SDS011;10471;42.736;23.346;2023-04-05T06:05:17;5.67;;;3.77;;
20623;SDS011;10471;42.736;23.346;2023-04-05T06:07:43;8.07;;;5.00;;
20623;SDS011;10471;42.736;23.346;2023-04-05T06:10:08;9.97;;;4.90;;
20623;SDS011;10471;42.736;23.346;2023-04-05T06:12:34;8.63;;;3.90;;
20623;SDS011;10471;42.736;23.346;2023-04-05T06:15:00;8.20;;;4.33;;
20623;SDS011;10471;42.736;23.346;2023-04-05T06:17:26;3.97;;;3.03;;
20623;SDS011;10471;42.736;23.346;2023-04-05T06:19:51;4.77;;;3.10;;
20623;SDS011;10471;42.736;23.346;2023-04-05T06:22:16;4.03;;;2.60;;
20623;SDS011;10471;42.736;23.346;2023-04-05T06:24:42;3.17;;;2.83;;
20623;SDS011;10471;42.736;23.346;2023-04-05T06:27:08;3.70;;;2.70;;
20623;SDS011;10471;42.736;23.346;2023-04-05T06:29:33;6.37;;;4.00;;
20623;SDS011;10471;42.736;23.346;2023-04-05T06:31:58;11.17;;;4.70;;
20623;SDS011;10471;42.736;23.346;2023-04-05T06:34:24;3.97;;;2.80;;
20623;SDS011;10471;42.736;23.346;2023-04-05T06:36:49;12.53;;;5.07;;
20623;SDS011;10471;42.736;23.346;2023-04-05T06:39:14;4.63;;;3.63;;
20623;SDS011;10471;42.736;23.346;2023-04-05T06:41:40;5.17;;;3.80;;
20623;SDS011;10471;42.736;23.346;2023-04-05T06:44:05;7.43;;;4.33;;
20623;SDS011;10471;42.736;23.346;2023-04-05T06:46:31;9.47;;;5.37;;
20623;SDS011;10471;42.736;23.346;2023-04-05T06:48:57;5.30;;;4.40;;
20623;SDS011;10471;42.736;23.346;2023-04-05T06:51:22;8.93;;;6.50;;
20623;SDS011;10471;42.736;23.346;2023-04-05T06:53:49;7.10;;;3.30;;
20623;SDS011;10471;42.736;23.346;2023-04-05T06:56:15;8.60;;;5.10;;
20623;SDS011;10471;42.736;23.346;2023-04-05T06:58:40;9.30;;;5.67;;
20623;SDS011;10471;42.736;23.346;2023-04-05T07:01:05;6.87;;;3.97;;
20623;SDS011;10471;42.736;23.346;2023-04-05T07:03:31;9.03;;;5.30;;
20623;SDS011;10471;42.736;23.346;2023-04-05T07:05:58;11.33;;;5.47;;
20623;SDS011;10471;42.736;23.346;2023-04-05T07:08:24;7.30;;;4.73;;
20623;SDS011;10471;42.736;23.346;2023-04-05T07:10:51;7.37;;;4.70;;
20623;SDS011;10471;42.736;23.346;2023-04-05T07:13:18;6.97;;;4.33;;
20623;SDS011;10471;42.736;23.346;2023-04-05T07:15:44;5.17;;;3.03;;
20623;SDS011;10471;42.736;23.346;2023-04-05T07:18:10;3.23;;;2.93;;
20623;SDS011;10471;42.736;23.346;2023-04-05T07:20:36;3.93;;;2.57;;
20623;SDS011;10471;42.736;23.346;2023-04-05T07:23:02;4.23;;;3.23;;
20623;SDS011;10471;42.736;23.346;2023-04-05T07:25:27;4.93;;;2.97;;
20623;SDS011;10471;42.736;23.346;2023-04-05T07:27:53;4.37;;;2.97;;
20623;SDS011;10471;42.736;23.346;2023-04-05T07:30:18;8.07;;;3.70;;
20623;SDS011;10471;42.736;23.346;2023-04-05T07:32:44;6.70;;;4.00;;
20623;SDS011;10471;42.736;23.346;2023-04-05T07:35:09;4.77;;;3.27;;
20623;SDS011;10471;42.736;23.346;2023-04-05T07:37:35;6.23;;;3.40;;
20623;SDS011;10471;42.736;23.346;2023-04-05T07:40:01;7.07;;;4.63;;
20623;SDS011;10471;42.736;23.346;2023-04-05T07:42:26;5.83;;;3.60;;
20623;SDS011;10471;42.736;23.346;2023-04-05T07:44:52;3.33;;;2.53;;
20623;SDS011;10471;42.736;23.346;2023-04-05T07:47:18;3.10;;;2.80;;
20623;SDS011;10471;42.736;23.346;2023-04-05T07:49:43;3.30;;;2.70;;
20623;SDS011;10471;42.736;23.346;2023-04-05T07:52:09;4.60;;;3.20;;
20623;SDS011;10471;42.736;23.346;2023-04-05T07:54:35;3.10;;;2.77;;
20623;SDS011;10471;42.736;23.346;2023-04-05T07:57:03;5.37;;;3.00;;
20623;SDS011;10471;42.736;23.346;2023-04-05T07:59:29;4.07;;;2.70;;
20623;SDS011;10471;42.736;23.346;2023-04-05T08:01:55;4.93;;;3.67;;
20623;SDS011;10471;42.736;23.346;2023-04-05T08:04:20;5.57;;;4.00;;
20623;SDS011;10471;42.736;23.346;2023-04-05T08:06:46;5.43;;;3.60;;
20623;SDS011;10471;42.736;23.346;2023-04-05T08:09:12;5.50;;;3.60;;
20623;SDS011;10471;42.736;23.346;2023-04-05T08:11:37;4.50;;;3.00;;
20623;SDS011;10471;42.736;23.346;2023-04-05T08:14:03;5.47;;;3.63;;
20623;SDS011;10471;42.736;23.346;2023-04-05T08:16:28;7.97;;;4.77;;
20623;SDS011;10471;42.736;23.346;2023-04-05T08:18:54;7.40;;;5.30;;
20623;SDS011;10471;42.736;23.346;2023-04-05T08:21:19;17.83;;;8.03;;
20623;SDS011;10471;42.736;23.346;2023-04-05T08:23:46;12.27;;;6.10;;
20623;SDS011;10471;42.736;23.346;2023-04-05T08:26:11;9.10;;;4.20;;
20623;SDS011;10471;42.736;23.346;2023-04-05T08:28:36;12.27;;;5.53;;
20623;SDS011;10471;42.736;23.346;2023-04-05T08:31:02;15.57;;;7.13;;
20623;SDS011;10471;42.736;23.346;2023-04-05T08:33:27;8.53;;;4.00;;
20623;SDS011;10471;42.736;23.346;2023-04-05T08:35:55;10.30;;;4.60;;
20623;SDS011;10471;42.736;23.346;2023-04-05T08:38:21;10.43;;;6.00;;
20623;SDS011;10471;42.736;23.346;2023-04-05T08:40:47;12.20;;;7.70;;
20623;SDS011;10471;42.736;23.346;2023-04-05T08:43:24;11.67;;;7.00;;
20623;SDS011;10471;42.736;23.346;2023-04-05T08:45:56;34.13;;;17.17;;
20623;SDS011;10471;42.736;23.346;2023-04-05T08:48:23;9.20;;;6.57;;
20623;SDS011;10471;42.736;23.346;2023-04-05T08:50:51;24.37;;;12.60;;
20623;SDS011;10471;42.736;23.346;2023-04-05T08:53:18;19.13;;;11.40;;
20623;SDS011;10471;42.736;23.346;2023-04-05T08:55:43;10.33;;;6.20;;
20623;SDS011;10471;42.736;23.346;2023-04-05T08:58:17;16.00;;;8.13;;
20623;SDS011;10471;42.736;23.346;2023-04-05T09:00:46;8.07;;;5.20;;
20623;SDS011;10471;42.736;23.346;2023-04-05T09:03:14;13.00;;;5.53;;
20623;SDS011;10471;42.736;23.346;2023-04-05T09:05:45;6.77;;;4.60;;
20623;SDS011;10471;42.736;23.346;2023-04-05T09:08:12;9.80;;;5.93;;
20623;SDS011;10471;42.736;23.346;2023-04-05T09:10:38;7.13;;;3.93;;
20623;SDS011;10471;42.736;23.346;2023-04-05T09:13:04;9.17;;;5.30;;
20623;SDS011;10471;42.736;23.346;2023-04-05T09:15:30;8.60;;;5.40;;
20623;SDS011;10471;42.736;23.346;2023-04-05T09:17:55;8.97;;;5.27;;
20623;SDS011;10471;42.736;23.346;2023-04-05T09:20:21;5.50;;;3.93;;
20623;SDS011;10471;42.736;23.346;2023-04-05T09:22:47;5.43;;;4.17;;
20623;SDS011;10471;42.736;23.346;2023-04-05T09:27:56;7.03;;;4.47;;
20623;SDS011;10471;42.736;23.346;2023-04-05T09:30:26;15.30;;;7.83;;
20623;SDS011;10471;42.736;23.346;2023-04-05T09:32:53;7.60;;;5.17;;
20623;SDS011;10471;42.736;23.346;2023-04-05T09:35:20;7.30;;;4.33;;
20623;SDS011;10471;42.736;23.346;2023-04-05T09:38:04;8.27;;;5.53;;
20623;SDS011;10471;42.736;23.346;2023-04-05T09:40:48;6.70;;;4.40;;
20623;SDS011;10471;42.736;23.346;2023-04-05T09:43:34;5.50;;;4.47;;
20623;SDS011;10471;42.736;23.346;2023-04-05T09:46:01;4.70;;;4.20;;
20623;SDS011;10471;42.736;23.346;2023-04-05T09:51:10;7.77;;;5.17;;
20623;SDS011;10471;42.736;23.346;2023-04-05T09:53:35;8.50;;;5.00;;
20623;SDS011;10471;42.736;23.346;2023-04-05T09:56:08;6.80;;;5.57;;
20623;SDS011;10471;42.736;23.346;2023-04-05T09:58:35;8.87;;;5.63;;
20623;SDS011;10471;42.736;23.346;2023-04-05T10:01:00;7.57;;;5.30;;
20623;SDS011;10471;42.736;23.346;2023-04-05T10:03:28;6.73;;;5.67;;
20623;SDS011;10471;42.736;23.346;2023-04-05T10:05:54;7.07;;;5.77;;
20623;SDS011;10471;42.736;23.346;2023-04-05T10:08:20;5.77;;;4.90;;
20623;SDS011;10471;42.736;23.346;2023-04-05T10:10:47;3.87;;;3.57;;
20623;SDS011;10471;42.736;23.346;2023-04-05T10:13:17;8.50;;;5.13;;
20623;SDS011;10471;42.736;23.346;2023-04-05T10:15:44;5.77;;;4.50;;
20623;SDS011;10471;42.736;23.346;2023-04-05T10:18:17;5.17;;;4.20;;
20623;SDS011;10471;42.736;23.346;2023-04-05T10:20:46;8.27;;;5.60;;
20623;SDS011;10471;42.736;23.346;2023-04-05T10:23:23;7.17;;;5.10;;
20623;SDS011;10471;42.736;23.346;2023-04-05T10:28:41;7.10;;;5.70;;
20623;SDS011;10471;42.736;23.346;2023-04-05T10:33:39;8.90;;;6.33;;
20623;SDS011;10471;42.736;23.346;2023-04-05T10:38:59;6.17;;;5.23;;
20623;SDS011;10471;42.736;23.346;2023-04-05T10:41:29;9.33;;;5.53;;
20623;SDS011;10471;42.736;23.346;2023-04-05T10:43:59;7.97;;;6.07;;
20623;SDS011;10471;42.736;23.346;2023-04-05T10:46:26;8.30;;;5.70;;
20623;SDS011;10471;42.736;23.346;2023-04-05T10:49:03;6.20;;;5.47;;
20623;SDS011;10471;42.736;23.346;2023-04-05T10:51:36;6.27;;;5.30;;
20623;SDS011;10471;42.736;23.346;2023-04-05T10:54:02;8.27;;;6.50;;
20623;SDS011;10471;42.736;23.346;2023-04-05T10:56:28;7.37;;;6.03;;
20623;SDS011;10471;42.736;23.346;2023-04-05T10:58:54;8.37;;;5.13;;
20623;SDS011;10471;42.736;23.346;2023-04-05T11:01:20;6.47;;;5.40;;
20623;SDS011;10471;42.736;23.346;2023-04-05T11:03:47;8.67;;;6.63;;
20623;SDS011;10471;42.736;23.346;2023-04-05T11:06:16;10.27;;;6.07;;
20623;SDS011;10471;42.736;23.346;2023-04-05T11:08:46;9.03;;;7.20;;
20623;SDS011;10471;42.736;23.346;2023-04-05T11:11:15;8.47;;;6.37;;
20623;SDS011;10471;42.736;23.346;2023-04-05T11:13:51;6.60;;;5.70;;
20623;SDS011;10471;42.736;23.346;2023-04-05T11:16:20;7.70;;;5.87;;
20623;SDS011;10471;42.736;23.346;2023-04-05T11:18:46;8.37;;;7.00;;
20623;SDS011;10471;42.736;23.346;2023-04-05T11:21:25;9.80;;;5.20;;
20623;SDS011;10471;42.736;23.346;2023-04-05T11:26:33;6.87;;;5.90;;
20623;SDS011;10471;42.736;23.346;2023-04-05T11:29:18;6.30;;;4.83;;
20623;SDS011;10471;42.736;23.346;2023-04-05T11:32:10;8.40;;;6.03;;
20623;SDS011;10471;42.736;23.346;2023-04-05T11:34:36;5.87;;;5.23;;
20623;SDS011;10471;42.736;23.346;2023-04-05T11:37:01;7.97;;;6.57;;
20623;SDS011;10471;42.736;23.346;2023-04-05T11:39:27;7.27;;;6.33;;
20623;SDS011;10471;42.736;23.346;2023-04-05T11:44:25;16.63;;;11.23;;
20623;SDS011;10471;42.736;23.346;2023-04-05T11:46:53;10.93;;;7.17;;
20623;SDS011;10471;42.736;23.346;2023-04-05T11:49:23;9.47;;;7.47;;
20623;SDS011;10471;42.736;23.346;2023-04-05T11:51:50;10.13;;;5.97;;
20623;SDS011;10471;42.736;23.346;2023-04-05T11:56:57;10.10;;;6.57;;
20623;SDS011;10471;42.736;23.346;2023-04-05T11:59:30;10.03;;;7.03;;
20623;SDS011;10471;42.736;23.346;2023-04-05T12:02:00;9.43;;;6.80;;
20623;SDS011;10471;42.736;23.346;2023-04-05T12:04:28;7.17;;;5.73;;
20623;SDS011;10471;42.736;23.346;2023-04-05T12:07:12;7.33;;;6.53;;
20623;SDS011;10471;42.736;23.346;2023-04-05T12:12:32;7.93;;;6.60;;
20623;SDS011;10471;42.736;23.346;2023-04-05T12:14:59;9.03;;;6.97;;
20623;SDS011;10471;42.736;23.346;2023-04-05T12:20:08;8.80;;;7.90;;
20623;SDS011;10471;42.736;23.346;2023-04-05T12:22:35;8.53;;;7.57;;
20623;SDS011;10471;42.736;23.346;2023-04-05T12:25:01;10.50;;;6.70;;
20623;SDS011;10471;42.736;23.346;2023-04-05T12:27:27;10.00;;;7.97;;
20623;SDS011;10471;42.736;23.346;2023-04-05T12:30:08;11.27;;;7.70;;
20623;SDS011;10471;42.736;23.346;2023-04-05T12:32:35;8.30;;;7.30;;
20623;SDS011;10471;42.736;23.346;2023-04-05T12:35:10;10.33;;;7.20;;
20623;SDS011;10471;42.736;23.346;2023-04-05T12:38:00;10.70;;;7.17;;
20623;SDS011;10471;42.736;23.346;2023-04-05T12:40:30;10.30;;;7.77;;
20623;SDS011;10471;42.736;23.346;2023-04-05T12:43:05;9.23;;;7.53;;
20623;SDS011;10471;42.736;23.346;2023-04-05T12:45:32;9.90;;;6.93;;
20623;SDS011;10471;42.736;23.346;2023-04-05T12:48:06;7.03;;;6.17;;
20623;SDS011;10471;42.736;23.346;2023-04-05T12:50:40;8.03;;;7.23;;
20623;SDS011;10471;42.736;23.346;2023-04-05T12:53:22;11.30;;;8.63;;
20623;SDS011;10471;42.736;23.346;2023-04-05T12:55:50;8.73;;;6.77;;
20623;SDS011;10471;42.736;23.346;2023-04-05T12:58:18;7.47;;;6.17;;
20623;SDS011;10471;42.736;23.346;2023-04-05T13:00:44;7.00;;;6.30;;
20623;SDS011;10471;42.736;23.346;2023-04-05T13:03:17;9.73;;;6.30;;
20623;SDS011;10471;42.736;23.346;2023-04-05T13:05:47;7.37;;;6.23;;
20623;SDS011;10471;42.736;23.346;2023-04-05T13:08:13;9.27;;;6.90;;
20623;SDS011;10471;42.736;23.346;2023-04-05T13:10:39;9.63;;;6.27;;
20623;SDS011;10471;42.736;23.346;2023-04-05T13:13:05;7.23;;;6.47;;
20623;SDS011;10471;42.736;23.346;2023-04-05T13:15:30;8.73;;;6.77;;
20623;SDS011;10471;42.736;23.346;2023-04-05T13:17:56;9.50;;;7.00;;
20623;SDS011;10471;42.736;23.346;2023-04-05T13:20:22;9.67;;;7.60;;
20623;SDS011;10471;42.736;23.346;2023-04-05T13:22:47;9.37;;;6.73;;
20623;SDS011;10471;42.736;23.346;2023-04-05T13:25:13;8.30;;;7.07;;
20623;SDS011;10471;42.736;23.346;2023-04-05T13:27:39;10.40;;;7.03;;
20623;SDS011;10471;42.736;23.346;2023-04-05T13:30:05;11.03;;;7.47;;
20623;SDS011;10471;42.736;23.346;2023-04-05T13:32:33;9.10;;;7.70;;
20623;SDS011;10471;42.736;23.346;2023-04-05T13:34:59;9.17;;;7.37;;
20623;SDS011;10471;42.736;23.346;2023-04-05T13:37:25;10.70;;;9.30;;
20623;SDS011;10471;42.736;23.346;2023-04-05T13:39:50;15.10;;;11.67;;
20623;SDS011;10471;42.736;23.346;2023-04-05T13:42:16;13.53;;;9.70;;
20623;SDS011;10471;42.736;23.346;2023-04-05T13:44:41;11.77;;;9.97;;
20623;SDS011;10471;42.736;23.346;2023-04-05T13:47:06;14.73;;;10.87;;
20623;SDS011;10471;42.736;23.346;2023-04-05T13:49:32;13.10;;;9.50;;
20623;SDS011;10471;42.736;23.346;2023-04-05T13:51:58;11.43;;;8.53;;
20623;SDS011;10471;42.736;23.346;2023-04-05T13:54:26;13.47;;;8.80;;
20623;SDS011;10471;42.736;23.346;2023-04-05T13:56:51;14.90;;;9.93;;
20623;SDS011;10471;42.736;23.346;2023-04-05T13:59:17;11.23;;;9.83;;
20623;SDS011;10471;42.736;23.346;2023-04-05T14:01:43;15.37;;;10.90;;
20623;SDS011;10471;42.736;23.346;2023-04-05T14:04:12;11.63;;;8.50;;
20623;SDS011;10471;42.736;23.346;2023-04-05T14:06:37;16.53;;;11.50;;
20623;SDS011;10471;42.736;23.346;2023-04-05T14:09:03;11.50;;;8.57;;
20623;SDS011;10471;42.736;23.346;2023-04-05T14:11:29;15.40;;;10.20;;
20623;SDS011;10471;42.736;23.346;2023-04-05T14:13:55;11.13;;;8.00;;
20623;SDS011;10471;42.736;23.346;2023-04-05T14:16:21;17.23;;;12.43;;
20623;SDS011;10471;42.736;23.346;2023-04-05T14:18:46;17.60;;;12.27;;
20623;SDS011;10471;42.736;23.346;2023-04-05T14:21:11;13.90;;;10.77;;
20623;SDS011;10471;42.736;23.346;2023-04-05T14:23:37;11.37;;;7.77;;
20623;SDS011;10471;42.736;23.346;2023-04-05T14:26:02;13.20;;;9.23;;
20623;SDS011;10471;42.736;23.346;2023-04-05T14:28:28;13.13;;;8.63;;
20623;SDS011;10471;42.736;23.346;2023-04-05T14:30:53;14.90;;;10.80;;
20623;SDS011;10471;42.736;23.346;2023-04-05T14:33:19;10.83;;;9.23;;
20623;SDS011;10471;42.736;23.346;2023-04-05T14:35:44;13.10;;;8.47;;
20623;SDS011;10471;42.736;23.346;2023-04-05T14:38:10;14.23;;;8.63;;
20623;SDS011;10471;42.736;23.346;2023-04-05T14:40:35;10.83;;;7.87;;
20623;SDS011;10471;42.736;23.346;2023-04-05T14:43:01;16.73;;;11.60;;
20623;SDS011;10471;42.736;23.346;2023-04-05T14:45:27;17.67;;;12.57;;
20623;SDS011;10471;42.736;23.346;2023-04-05T14:47:52;10.90;;;7.80;;
20623;SDS011;10471;42.736;23.346;2023-04-05T14:50:18;12.77;;;9.80;;
20623;SDS011;10471;42.736;23.346;2023-04-05T14:52:44;14.77;;;10.97;;
20623;SDS011;10471;42.736;23.346;2023-04-05T14:55:10;15.87;;;10.03;;
20623;SDS011;10471;42.736;23.346;2023-04-05T14:57:37;15.13;;;9.87;;
20623;SDS011;10471;42.736;23.346;2023-04-05T15:00:03;15.07;;;11.27;;
20623;SDS011;10471;42.736;23.346;2023-04-05T15:02:30;17.57;;;12.03;;
20623;SDS011;10471;42.736;23.346;2023-04-05T15:04:55;16.87;;;13.03;;
20623;SDS011;10471;42.736;23.346;2023-04-05T15:07:24;18.37;;;11.17;;